createdAt,value
2023-04-06T00:02:06.363Z,62.42
2023-04-06T00:04:34.263Z,57.91
2023-04-06T00:07:02.073Z,56.63
2023-04-06T00:09:29.848Z,57.26
2023-04-06T00:11:58.879Z,58.24
2023-04-06T00:14:26.658Z,59.24
2023-04-06T00:16:55.065Z,59.78
2023-04-06T00:19:22.971Z,60.36
2023-04-06T00:21:50.904Z,60.74
2023-04-06T00:24:18.778Z,61.30
2023-04-06T00:26:46.590Z,61.56
2023-04-06T00:29:14.419Z,61.57
2023-04-06T00:31:42.242Z,61.56
2023-04-06T00:34:11.292Z,61.89
2023-04-06T00:36:39.466Z,62.66
2023-04-06T00:39:07.494Z,63.90
2023-04-06T00:41:35.611Z,60.50
2023-04-06T00:44:03.398Z,55.39
2023-04-06T00:46:31.359Z,54.95
2023-04-06T00:48:59.218Z,56.22
2023-04-06T00:51:27.733Z,57.28
2023-04-06T00:53:55.653Z,58.26
2023-04-06T00:56:24.744Z,58.91
2023-04-06T00:58:53.283Z,59.52
2023-04-06T01:01:21.218Z,60.38
2023-04-06T01:03:51.084Z,60.64
2023-04-06T01:06:18.904Z,60.71
2023-04-06T01:08:46.659Z,61.26
2023-04-06T01:11:14.419Z,62.06
2023-04-06T01:13:42.223Z,63.64
2023-04-06T01:16:11.024Z,62.57
2023-04-06T01:18:39.633Z,57.69
2023-04-06T01:21:09.677Z,56.07
2023-04-06T01:23:37.526Z,57.26
2023-04-06T01:26:05.721Z,58.25
2023-04-06T01:28:33.561Z,58.91
2023-04-06T01:31:01.399Z,60.12
2023-04-06T01:33:29.287Z,60.37
2023-04-06T01:35:57.208Z,61.47
2023-04-06T01:38:25.510Z,62.09
2023-04-06T01:40:54.518Z,63.66
2023-04-06T01:43:22.997Z,61.43
2023-04-06T01:45:50.860Z,56.67
2023-04-06T01:48:18.667Z,55.56
2023-04-06T01:50:46.503Z,57.03
2023-04-06T01:53:14.398Z,58.00
2023-04-06T01:55:42.256Z,59.05
2023-04-06T01:58:10.060Z,59.42
2023-04-06T02:00:38.009Z,60.01
2023-04-06T02:03:05.994Z,60.63
2023-04-06T02:05:39.230Z,61.65
2023-04-06T02:08:07.452Z,63.15
2023-04-06T02:10:36.070Z,62.44
2023-04-06T02:13:03.942Z,57.68
2023-04-06T02:15:31.741Z,56.30
2023-04-06T02:18:01.150Z,57.59
2023-04-06T02:20:29.001Z,58.87
2023-04-06T02:23:01.000Z,59.82
2023-04-06T02:25:29.118Z,60.96
2023-04-06T02:27:56.955Z,61.41
2023-04-06T02:30:24.696Z,61.82
2023-04-06T02:32:52.577Z,63.52
2023-04-06T02:35:20.558Z,62.56
2023-04-06T02:37:48.314Z,57.97
2023-04-06T02:40:16.157Z,56.25
2023-04-06T02:42:44.047Z,57.58
2023-04-06T02:45:11.923Z,58.96
2023-04-06T02:47:39.835Z,60.20
2023-04-06T02:50:08.010Z,60.89
2023-04-06T02:52:36.112Z,61.20
2023-04-06T02:55:04.376Z,62.14
2023-04-06T02:57:32.205Z,64.46
2023-04-06T02:59:59.980Z,62.43
2023-04-06T03:02:27.910Z,58.06
2023-04-06T03:04:56.019Z,56.84
2023-04-06T03:07:23.889Z,58.13
2023-04-06T03:09:51.800Z,59.45
2023-04-06T03:12:19.606Z,60.49
2023-04-06T03:14:47.510Z,61.24
2023-04-06T03:17:15.715Z,61.82
2023-04-06T03:19:43.716Z,63.68
2023-04-06T03:22:11.708Z,62.82
2023-04-06T03:24:39.565Z,59.45
2023-04-06T03:27:07.450Z,55.18
2023-04-06T03:29:35.338Z,55.62
2023-04-06T03:32:03.161Z,57.38
2023-04-06T03:34:31.083Z,59.02
2023-04-06T03:37:09.280Z,59.94
2023-04-06T03:39:38.011Z,60.95
2023-04-06T03:42:05.918Z,61.94
2023-04-06T03:44:33.659Z,63.49
2023-04-06T03:47:02.018Z,61.95
2023-04-06T03:49:29.950Z,57.43
2023-04-06T03:51:57.964Z,56.60
2023-04-06T03:54:26.014Z,58.11
2023-04-06T03:56:53.831Z,59.59
2023-04-06T03:59:21.728Z,60.91
2023-04-06T04:01:49.604Z,61.41
2023-04-06T04:04:17.751Z,63.00
2023-04-06T04:06:45.591Z,62.65
2023-04-06T04:09:13.542Z,58.80
2023-04-06T04:11:41.455Z,55.58
2023-04-06T04:14:09.428Z,56.66
2023-04-06T04:16:37.413Z,58.15
2023-04-06T04:19:05.511Z,59.55
2023-04-06T04:21:33.463Z,60.47
2023-04-06T04:24:01.431Z,61.49
2023-04-06T04:26:29.222Z,61.99
2023-04-06T04:28:57.036Z,63.63
2023-04-06T04:31:24.832Z,62.09
2023-04-06T04:33:52.577Z,57.54
2023-04-06T04:36:20.731Z,56.44
2023-04-06T04:38:48.743Z,57.96
2023-04-06T04:41:16.553Z,59.31
2023-04-06T04:43:44.955Z,60.63
2023-04-06T04:46:12.854Z,61.56
2023-04-06T04:48:40.855Z,62.35
2023-04-06T04:51:08.873Z,63.98
2023-04-06T04:53:36.824Z,61.47
2023-04-06T04:56:05.098Z,56.64
2023-04-06T04:58:32.913Z,56.21
2023-04-06T05:01:01.428Z,57.97
2023-04-06T05:03:29.818Z,59.41
2023-04-06T05:05:57.752Z,60.59
2023-04-06T05:08:25.989Z,61.35
2023-04-06T05:10:53.820Z,61.57
2023-04-06T05:13:21.765Z,63.09
2023-04-06T05:15:49.697Z,63.53
2023-04-06T05:18:17.836Z,59.91
2023-04-06T05:20:46.231Z,55.61
2023-04-06T05:23:14.753Z,56.32
2023-04-06T05:25:43.001Z,57.92
2023-04-06T05:28:11.192Z,59.02
2023-04-06T05:30:39.013Z,59.74
2023-04-06T05:33:07.156Z,60.76
2023-04-06T05:35:35.051Z,61.47
2023-04-06T05:38:02.858Z,62.18
2023-04-06T05:40:30.709Z,63.96
2023-04-06T05:42:58.605Z,62.66
2023-04-06T05:45:26.677Z,58.68
2023-04-06T05:47:54.554Z,56.15
2023-04-06T05:50:23.508Z,57.39
2023-04-06T05:52:51.426Z,58.82
2023-04-06T05:55:19.833Z,59.87
2023-04-06T05:57:51.332Z,60.29
2023-04-06T06:00:20.186Z,60.92
2023-04-06T06:02:48.196Z,61.37
2023-04-06T06:05:16.669Z,61.53
2023-04-06T06:07:44.932Z,62.04
2023-04-06T06:10:13.150Z,63.94
2023-04-06T06:12:41.102Z,61.96
2023-04-06T06:15:09.993Z,57.70
2023-04-06T06:17:39.175Z,56.39
2023-04-06T06:20:08.885Z,57.77
2023-04-06T06:22:37.589Z,58.54
2023-04-06T06:25:05.626Z,59.61
2023-04-06T06:27:33.757Z,59.81
2023-04-06T06:30:02.744Z,60.15
2023-04-06T06:32:30.702Z,60.56
2023-04-06T06:34:58.582Z,60.91
2023-04-06T06:37:27.467Z,61.79
2023-04-06T06:39:56.546Z,61.79
2023-04-06T06:42:24.406Z,62.90
2023-04-06T06:44:52.872Z,61.09
2023-04-06T06:47:20.921Z,57.00
2023-04-06T06:49:48.660Z,55.92
2023-04-06T06:52:16.464Z,56.79
2023-04-06T06:54:44.719Z,57.68
2023-04-06T06:57:12.679Z,58.58
2023-04-06T06:59:40.672Z,59.23
2023-04-06T07:02:08.452Z,59.06
2023-04-06T07:04:36.528Z,59.40
2023-04-06T07:07:04.658Z,59.35
2023-04-06T07:09:32.620Z,58.69
2023-04-06T07:12:02.018Z,58.85
2023-04-06T07:14:29.810Z,58.85
2023-04-06T07:16:57.743Z,58.20
2023-04-06T07:19:25.711Z,57.11
2023-04-06T07:21:53.788Z,55.67
2023-04-06T07:24:21.618Z,56.07
2023-04-06T07:26:49.410Z,56.24
2023-04-06T07:29:17.314Z,57.17
2023-04-06T07:31:45.115Z,56.56
2023-04-06T07:34:13.175Z,56.72
2023-04-06T07:36:41.095Z,56.00
2023-04-06T07:39:08.962Z,53.89
2023-04-06T07:41:36.919Z,54.66
2023-04-06T07:44:05.785Z,54.19
2023-04-06T07:46:33.815Z,53.18
2023-04-06T07:49:04.435Z,51.80
2023-04-06T07:51:32.430Z,51.59
2023-04-06T07:54:00.888Z,50.87
2023-04-06T07:56:28.726Z,51.75
2023-04-06T07:58:59.871Z,50.91
2023-04-06T08:01:29.490Z,49.82
2023-04-06T08:03:58.147Z,48.59
2023-04-06T08:06:26.255Z,46.45
2023-04-06T08:08:54.368Z,45.68
2023-04-06T08:11:22.453Z,47.08
2023-04-06T08:13:50.546Z,45.50
2023-04-06T08:16:18.605Z,44.66
2023-04-06T08:18:46.418Z,43.42
2023-04-06T08:21:14.264Z,42.64
2023-04-06T08:23:41.995Z,42.27
2023-04-06T08:26:10.721Z,41.98
2023-04-06T08:28:39.220Z,41.16
2023-04-06T08:31:07.255Z,41.44
2023-04-06T08:33:40.242Z,40.87
2023-04-06T08:36:16.084Z,40.26
2023-04-06T08:38:44.093Z,40.15
2023-04-06T08:41:13.619Z,40.74
2023-04-06T08:43:48.355Z,39.82
2023-04-06T08:46:17.229Z,41.07
2023-04-06T08:48:51.161Z,39.45
2023-04-06T08:51:19.913Z,39.40
2023-04-06T08:53:49.662Z,38.89
2023-04-06T08:56:17.714Z,38.09
2023-04-06T08:58:46.219Z,37.71
2023-04-06T09:01:15.235Z,36.21
2023-04-06T09:03:43.672Z,34.67
2023-04-06T09:06:12.919Z,34.70
2023-04-06T09:08:42.144Z,33.93
2023-04-06T09:11:10.675Z,33.21
2023-04-06T09:13:50.624Z,31.34
2023-04-06T09:16:19.461Z,31.20
2023-04-06T09:18:48.587Z,31.10
2023-04-06T09:21:22.627Z,29.68
2023-04-06T09:24:02.943Z,29.67
2023-04-06T09:26:31.341Z,28.87
2023-04-06T09:29:01.319Z,28.96
2023-04-06T09:31:34.305Z,27.79
2023-04-06T09:34:02.911Z,28.24
2023-04-06T09:36:36.329Z,28.84
2023-04-06T09:39:05.843Z,28.93
2023-04-06T09:41:37.565Z,28.08
2023-04-06T09:44:08.540Z,27.92
2023-04-06T09:46:57.675Z,27.98
2023-04-06T09:49:29.100Z,28.30
2023-04-06T09:52:03.991Z,28.39
2023-04-06T09:54:33.067Z,28.37
2023-04-06T09:57:11.285Z,27.94
2023-04-06T10:00:12.676Z,27.08
2023-04-06T10:02:51.745Z,28.01
2023-04-06T10:05:42.225Z,27.01
2023-04-06T10:08:15.223Z,27.28
2023-04-06T10:10:43.743Z,27.13
2023-04-06T10:13:13.219Z,27.29
2023-04-06T10:15:41.820Z,27.22
2023-04-06T10:18:10.015Z,27.58
2023-04-06T10:20:56.953Z,28.46
2023-04-06T10:23:46.452Z,27.79
2023-04-06T10:26:17.524Z,28.05
2023-04-06T10:28:47.700Z,27.87
2023-04-06T10:31:16.115Z,27.32
2023-04-06T10:33:55.582Z,27.29
2023-04-06T10:36:27.537Z,28.24
2023-04-06T10:39:04.339Z,27.96
2023-04-06T10:41:37.529Z,27.31
2023-04-06T10:44:05.942Z,28.03
2023-04-06T10:46:34.947Z,27.69
2023-04-06T10:49:15.868Z,27.63
2023-04-06T10:51:43.685Z,26.38
2023-04-06T10:54:12.526Z,27.43
2023-04-06T10:56:40.702Z,27.60
2023-04-06T10:59:08.951Z,27.56
2023-04-06T11:01:37.333Z,27.02
2023-04-06T11:04:05.843Z,27.20
2023-04-06T11:06:33.797Z,26.79
2023-04-06T11:09:01.845Z,27.32
2023-04-06T11:11:30.259Z,27.68
2023-04-06T11:14:00.601Z,27.25
2023-04-06T11:16:31.839Z,27.20
2023-04-06T11:19:05.314Z,26.91
2023-04-06T11:21:40.493Z,26.90
2023-04-06T11:24:20.606Z,27.50
2023-04-06T11:26:54.902Z,27.40
2023-04-06T11:29:28.514Z,27.06
2023-04-06T11:32:03.188Z,27.32
2023-04-06T11:34:37.927Z,28.04
2023-04-06T11:37:10.291Z,27.06
2023-04-06T11:39:52.845Z,27.54
2023-04-06T11:42:30.417Z,27.31
2023-04-06T11:44:59.555Z,27.47
2023-04-06T11:47:38.900Z,27.90
2023-04-06T11:50:15.361Z,27.69
2023-04-06T11:52:43.963Z,28.05
2023-04-06T11:55:17.418Z,27.29
2023-04-06T11:57:48.269Z,27.12
2023-04-06T12:00:17.066Z,27.45
2023-04-06T12:02:49.787Z,27.66
2023-04-06T12:05:17.952Z,27.55
2023-04-06T12:07:46.035Z,27.75
2023-04-06T12:10:13.890Z,27.93
2023-04-06T12:12:41.751Z,27.26
2023-04-06T12:15:10.422Z,27.08
2023-04-06T12:17:38.466Z,27.98
2023-04-06T12:20:22.053Z,27.92
2023-04-06T12:22:53.026Z,27.66
2023-04-06T12:25:21.160Z,27.76
2023-04-06T12:27:49.063Z,28.21
2023-04-06T12:30:17.171Z,28.53
2023-04-06T12:32:45.101Z,28.88
2023-04-06T12:35:16.709Z,28.68
2023-04-06T12:37:44.702Z,29.30
2023-04-06T12:40:12.951Z,29.17
2023-04-06T12:42:42.403Z,29.04
2023-04-06T12:45:11.154Z,28.62
2023-04-06T12:47:39.289Z,28.77
2023-04-06T12:50:07.926Z,28.98
2023-04-06T12:52:36.536Z,30.18
2023-04-06T12:55:06.273Z,30.28
2023-04-06T12:57:34.242Z,30.16
2023-04-06T13:00:02.741Z,30.57
2023-04-06T13:02:32.172Z,30.37
2023-04-06T13:05:00.343Z,31.02
2023-04-06T13:07:28.840Z,31.41
2023-04-06T13:09:56.880Z,31.15
2023-04-06T13:12:25.154Z,31.55
2023-04-06T13:14:53.640Z,31.42
2023-04-06T13:17:22.217Z,31.59
2023-04-06T13:19:50.531Z,31.30
2023-04-06T13:22:18.479Z,30.95
2023-04-06T13:24:46.674Z,30.93
2023-04-06T13:27:14.627Z,31.40
2023-04-06T13:29:42.679Z,31.17
2023-04-06T13:32:11.528Z,31.67
2023-04-06T13:34:41.600Z,32.58
2023-04-06T13:37:09.593Z,32.68
2023-04-06T13:39:37.595Z,32.71
2023-04-06T13:42:05.602Z,32.84
2023-04-06T13:44:33.929Z,32.89
2023-04-06T13:47:02.180Z,32.88
2023-04-06T13:49:29.978Z,32.82
2023-04-06T13:51:57.898Z,32.74
2023-04-06T13:54:27.600Z,32.91
2023-04-06T13:56:56.101Z,33.12
2023-04-06T13:59:24.048Z,33.04
2023-04-06T14:01:52.042Z,33.14
2023-04-06T14:04:19.886Z,33.18
2023-04-06T14:06:47.792Z,33.59
2023-04-06T14:09:15.659Z,33.54
2023-04-06T14:11:43.534Z,34.09
2023-04-06T14:14:11.627Z,34.71
2023-04-06T14:16:39.705Z,34.53
2023-04-06T14:19:07.933Z,34.46
2023-04-06T14:21:35.850Z,34.40
2023-04-06T14:24:04.094Z,34.36
2023-04-06T14:26:33.084Z,34.34
2023-04-06T14:29:01.374Z,34.66
2023-04-06T14:31:29.753Z,35.07
2023-04-06T14:33:57.998Z,35.18
2023-04-06T14:36:28.587Z,35.60
2023-04-06T14:38:59.814Z,35.23
2023-04-06T14:41:28.012Z,35.36
2023-04-06T14:43:56.418Z,35.31
2023-04-06T14:46:24.395Z,35.20
2023-04-06T14:49:04.804Z,35.23
2023-04-06T14:51:37.275Z,35.38
2023-04-06T14:54:05.508Z,35.48
2023-04-06T14:56:33.504Z,35.65
2023-04-06T14:59:04.657Z,35.74
2023-04-06T15:01:37.193Z,36.01
2023-04-06T15:04:06.020Z,36.11
2023-04-06T15:06:34.079Z,36.42
2023-04-06T15:09:01.867Z,36.29
2023-04-06T15:11:29.808Z,36.69
2023-04-06T15:13:57.785Z,36.74
2023-04-06T15:16:26.434Z,36.77
2023-04-06T15:18:54.409Z,37.05
2023-04-06T15:21:22.462Z,37.03
2023-04-06T15:23:51.502Z,37.23
2023-04-06T15:26:19.593Z,37.50
2023-04-06T15:28:47.676Z,37.46
2023-04-06T15:31:36.844Z,37.21
2023-04-06T15:34:09.139Z,37.47
2023-04-06T15:36:37.408Z,37.48
2023-04-06T15:39:09.618Z,37.90
2023-04-06T15:41:41.104Z,37.82
2023-04-06T15:44:09.183Z,38.07
2023-04-06T15:46:37.029Z,38.24
2023-04-06T15:49:04.981Z,38.16
2023-04-06T15:51:33.883Z,38.35
2023-04-06T15:54:01.818Z,38.45
2023-04-06T15:56:29.677Z,38.21
2023-04-06T15:58:58.228Z,38.29
2023-04-06T16:01:26.457Z,38.34
2023-04-06T16:03:54.559Z,38.25
2023-04-06T16:06:24.644Z,38.39
2023-04-06T16:08:53.095Z,38.58
2023-04-06T16:11:21.834Z,38.63
2023-04-06T16:13:55.138Z,39.43
2023-04-06T16:16:30.968Z,39.30
2023-04-06T16:18:59.062Z,39.26
2023-04-06T16:21:31.565Z,38.91
2023-04-06T16:24:00.097Z,38.85
2023-04-06T16:26:28.700Z,38.69
2023-04-06T16:28:57.306Z,38.88
2023-04-06T16:31:25.675Z,39.00
2023-04-06T16:33:57.178Z,39.02
2023-04-06T16:36:29.765Z,39.01
2023-04-06T16:38:59.175Z,39.06
2023-04-06T16:41:27.938Z,39.09
2023-04-06T16:43:57.490Z,39.17
2023-04-06T16:46:36.078Z,39.50
2023-04-06T16:49:05.850Z,39.59
2023-04-06T16:51:33.990Z,39.54
2023-04-06T16:54:02.719Z,39.82
2023-04-06T16:56:31.961Z,39.75
2023-04-06T16:58:59.859Z,39.94
2023-04-06T17:01:29.731Z,40.07
2023-04-06T17:03:57.822Z,40.11
2023-04-06T17:06:27.727Z,40.27
2023-04-06T17:08:55.890Z,40.22
2023-04-06T17:11:28.581Z,40.42
2023-04-06T17:14:00.766Z,40.58
2023-04-06T17:16:29.282Z,40.72
2023-04-06T17:18:58.140Z,40.65
2023-04-06T17:21:26.351Z,40.91
2023-04-06T17:23:54.580Z,41.14
2023-04-06T17:26:22.342Z,41.49
2023-04-06T17:28:50.270Z,41.37
2023-04-06T17:31:18.359Z,41.90
2023-04-06T17:33:46.533Z,41.56
2023-04-06T17:36:14.735Z,41.75
2023-04-06T17:38:44.325Z,41.90
2023-04-06T17:41:14.014Z,42.11
2023-04-06T17:43:42.232Z,42.06
2023-04-06T17:46:10.292Z,42.51
2023-04-06T17:48:38.190Z,42.33
2023-04-06T17:51:08.964Z,42.52
2023-04-06T17:53:37.277Z,42.78
2023-04-06T17:56:05.616Z,43.16
2023-04-06T17:58:33.888Z,43.35
2023-04-06T18:01:11.685Z,43.21
2023-04-06T18:03:40.143Z,43.31
2023-04-06T18:06:15.864Z,43.52
2023-04-06T18:08:44.460Z,43.82
2023-04-06T18:11:18.597Z,43.85
2023-04-06T18:13:46.852Z,44.04
2023-04-06T18:16:17.482Z,44.28
2023-04-06T18:18:45.899Z,44.59
2023-04-06T18:21:14.722Z,44.56
2023-04-06T18:23:43.267Z,44.44
2023-04-06T18:26:21.449Z,44.87
2023-04-06T18:28:52.612Z,45.03
2023-04-06T18:31:21.990Z,45.32
2023-04-06T18:33:52.921Z,45.53
2023-04-06T18:36:22.541Z,45.76
2023-04-06T18:38:50.942Z,45.78
2023-04-06T18:41:20.737Z,45.89
2023-04-06T18:43:49.671Z,45.84
2023-04-06T18:46:20.280Z,46.11
2023-04-06T18:48:48.535Z,46.25
2023-04-06T18:51:16.977Z,46.35
2023-04-06T18:53:45.132Z,46.28
2023-04-06T18:56:19.073Z,46.54
2023-04-06T18:58:49.084Z,46.42
2023-04-06T19:01:25.866Z,46.83
2023-04-06T19:03:55.189Z,47.04
2023-04-06T19:06:24.788Z,47.85
2023-04-06T19:08:53.525Z,50.10
2023-04-06T19:11:23.363Z,50.62
2023-04-06T19:13:51.395Z,51.11
2023-04-06T19:16:19.398Z,52.07
2023-04-06T19:18:47.324Z,52.66
2023-04-06T19:21:20.514Z,52.87
2023-04-06T19:23:51.156Z,52.67
2023-04-06T19:26:27.901Z,52.86
2023-04-06T19:28:58.257Z,53.01
2023-04-06T19:31:28.979Z,52.68
2023-04-06T19:33:57.375Z,52.55
2023-04-06T19:36:26.203Z,52.45
2023-04-06T19:38:55.164Z,51.98
2023-04-06T19:41:24.242Z,52.15
2023-04-06T19:43:52.300Z,52.73
2023-04-06T19:46:21.645Z,53.48
2023-04-06T19:48:49.974Z,53.97
2023-04-06T19:51:17.985Z,53.96
2023-04-06T19:53:45.934Z,54.05
2023-04-06T19:56:16.328Z,54.29
2023-04-06T19:58:44.477Z,54.28
2023-04-06T20:01:15.527Z,54.46
2023-04-06T20:03:43.939Z,54.39
2023-04-06T20:06:13.246Z,54.41
2023-04-06T20:08:44.473Z,54.61
2023-04-06T20:11:14.220Z,54.04
2023-04-06T20:13:57.510Z,53.95
2023-04-06T20:16:31.492Z,53.76
2023-04-06T20:19:10.113Z,54.03
2023-04-06T20:21:41.511Z,53.98
2023-04-06T20:24:14.308Z,54.44
2023-04-06T20:26:45.851Z,54.88
2023-04-06T20:29:17.329Z,55.17
2023-04-06T20:31:53.520Z,55.27
2023-04-06T20:34:24.509Z,54.24
2023-04-06T20:36:52.918Z,53.55
2023-04-06T20:39:21.054Z,53.48
2023-04-06T20:41:49.149Z,53.08
2023-04-06T20:44:18.336Z,52.92
2023-04-06T20:46:48.931Z,52.84
2023-04-06T20:49:18.425Z,53.82
2023-04-06T20:51:46.358Z,55.02
2023-04-06T20:54:14.244Z,54.44
2023-04-06T20:56:42.081Z,53.86
2023-04-06T20:59:10.944Z,54.00
2023-04-06T21:01:44.208Z,54.00
2023-04-06T21:04:12.735Z,53.91
2023-04-06T21:06:43.851Z,53.71
2023-04-06T21:09:11.830Z,53.60
2023-04-06T21:11:39.881Z,53.31
2023-04-06T21:14:07.924Z,53.20
2023-04-06T21:16:36.730Z,53.11
2023-04-06T21:19:04.628Z,53.17
2023-04-06T21:21:37.226Z,52.76
2023-04-06T21:24:11.784Z,52.89
2023-04-06T21:26:39.887Z,53.17
2023-04-06T21:29:07.915Z,52.70
2023-04-06T21:31:41.224Z,53.37
2023-04-06T21:34:13.185Z,53.36
2023-04-06T21:36:42.140Z,53.41
2023-04-06T21:39:10.390Z,53.67
2023-04-06T21:41:40.454Z,54.21
2023-04-06T21:44:08.465Z,53.73
2023-04-06T21:46:36.488Z,53.76
2023-04-06T21:49:04.413Z,53.93
2023-04-06T21:51:37.024Z,54.74
2023-04-06T21:54:05.487Z,54.28
2023-04-06T21:56:33.823Z,54.76
2023-04-06T21:59:01.737Z,55.73
2023-04-06T22:01:30.023Z,55.75
2023-04-06T22:03:58.264Z,56.61
2023-04-06T22:06:26.697Z,56.56
2023-04-06T22:08:54.681Z,58.19
2023-04-06T22:11:22.597Z,58.23
2023-04-06T22:13:50.506Z,57.80
2023-04-06T22:16:18.735Z,57.67
2023-04-06T22:18:46.917Z,58.58
2023-04-06T22:21:14.872Z,58.65
2023-04-06T22:23:42.913Z,58.01
2023-04-06T22:26:12.229Z,58.12
2023-04-06T22:28:40.030Z,58.02
2023-04-06T22:31:08.532Z,57.46
2023-04-06T22:33:36.409Z,57.54
2023-04-06T22:36:04.756Z,57.32
2023-04-06T22:38:32.684Z,57.72
2023-04-06T22:41:00.590Z,57.75
2023-04-06T22:43:28.488Z,57.62
2023-04-06T22:45:57.197Z,57.80
2023-04-06T22:48:25.238Z,57.98
2023-04-06T22:50:53.190Z,57.82
2023-04-06T22:53:21.249Z,58.29
2023-04-06T22:55:49.136Z,58.22
2023-04-06T22:58:17.187Z,57.98
2023-04-06T23:00:44.971Z,58.09
2023-04-06T23:03:12.859Z,57.94
2023-04-06T23:05:40.723Z,58.50
2023-04-06T23:08:08.701Z,58.69
2023-04-06T23:10:38.663Z,58.22
2023-04-06T23:13:06.432Z,58.38
2023-04-06T23:15:34.226Z,58.64
2023-04-06T23:18:02.433Z,58.72
2023-04-06T23:20:30.305Z,58.27
2023-04-06T23:22:58.209Z,58.25
2023-04-06T23:25:26.263Z,59.06
2023-04-06T23:27:54.269Z,58.76
2023-04-06T23:30:22.357Z,59.39
2023-04-06T23:32:50.489Z,59.67
2023-04-06T23:35:18.563Z,60.34
2023-04-06T23:37:46.651Z,59.95
2023-04-06T23:40:14.641Z,59.57
2023-04-06T23:42:42.645Z,60.57
2023-04-06T23:45:10.900Z,60.41
2023-04-06T23:47:38.770Z,60.67
2023-04-06T23:50:07.503Z,61.65
2023-04-06T23:52:35.513Z,61.91
2023-04-06T23:55:03.806Z,62.61
2023-04-06T23:57:31.665Z,61.11
